Time;durP1;ratioP1;P1;durP2;ratioP2;P2;SDS_P1;SDS_P2;PMS_P1;PMS_P2;Temp;Humidity;BMP_temperature;BMP_pressure;BME280_temperature;BME280_humidity;BME280_pressure;Samples;Min_cycle;Max_cycle;Signal;HPM_P1;HPM_P2
2022/04/28 00:01:03;;;;;;;15.05;4.43;;;18.10;99.90;;;;;;4917471;29;20048;-77
2022/04/28 00:03:31;;;;;;;10.98;4.43;;;18.20;99.80;;;;;;4917503;29;20076;-77
2022/04/28 00:05:58;;;;;;;15.73;5.22;;;18.20;99.90;;;;;;4917889;29;20075;-78
2022/04/28 00:08:26;;;;;;;11.70;4.80;;;18.00;99.90;;;;;;4917195;29;20107;-79
2022/04/28 00:10:53;;;;;;;12.00;4.13;;;17.70;99.90;;;;;;4917518;29;20436;-78
2022/04/28 00:13:20;;;;;;;12.35;5.50;;;17.70;99.90;;;;;;4917103;29;20040;-77
2022/04/28 00:15:53;;;;;;;9.10;4.63;;;17.80;99.90;;;;;;4917429;29;20440;-79
2022/04/28 00:18:20;;;;;;;13.05;5.25;;;17.70;99.90;;;;;;4916751;29;20043;-77
2022/04/28 00:20:47;;;;;;;8.57;5.00;;;17.70;99.90;;;;;;4917124;29;20044;-77
2022/04/28 00:23:15;;;;;;;10.40;5.00;;;17.30;99.90;;;;;;4916934;29;20482;-76
2022/04/28 00:25:42;;;;;;;11.20;5.03;;;17.40;99.90;;;;;;4917197;29;20056;-76
2022/04/28 00:28:12;;;;;;;12.93;5.68;;;17.30;99.90;;;;;;4916461;29;20056;-76
2022/04/28 00:30:41;;;;;;;9.23;4.78;;;17.40;99.90;;;;;;4916464;29;20128;-77
2022/04/28 00:33:13;;;;;;;11.63;5.78;;;17.10;99.90;;;;;;4916531;29;20044;-76
2022/04/28 00:35:40;;;;;;;12.32;4.88;;;17.10;99.90;;;;;;4916368;29;20078;-77
2022/04/28 00:38:08;;;;;;;9.65;4.75;;;17.00;99.90;;;;;;4916524;29;20079;-77
2022/04/28 00:40:35;;;;;;;8.93;5.15;;;17.30;99.90;;;;;;4916245;29;20044;-76
2022/04/28 00:43:20;;;;;;;10.23;5.78;;;17.30;99.90;;;;;;4916244;29;20240;-77
2022/04/28 00:45:49;;;;;;;8.75;4.32;;;17.00;99.90;;;;;;4916327;29;20403;-77
2022/04/28 00:51:05;;;;;;;12.02;5.25;;;16.70;99.90;;;;;;4935378;29;20083;-77
2022/04/28 00:53:41;;;;;;;10.27;4.22;;;16.70;99.90;;;;;;4934827;29;20137;-80
2022/04/28 00:56:09;;;;;;;11.02;4.75;;;16.40;99.90;;;;;;4935530;29;20052;-78
2022/04/28 00:58:39;;;;;;;7.95;4.05;;;16.70;99.90;;;;;;4935594;29;20075;-77
2022/04/28 01:01:07;;;;;;;8.05;4.10;;;16.80;99.90;;;;;;4935377;29;20066;-79
2022/04/28 01:03:36;;;;;;;;;;;16.70;99.90;;;;;;4935848;29;20134;-80
2022/04/28 01:06:04;;;;;;;8.57;4.38;;;16.90;99.90;;;;;;4935324;29;20025;-80
2022/04/28 01:08:31;;;;;;;9.98;4.85;;;16.90;99.90;;;;;;4935180;29;20487;-78
2022/04/28 01:10:59;;;;;;;10.68;5.07;;;16.80;99.90;;;;;;4935422;29;20043;-77
2022/04/28 01:13:26;;;;;;;7.53;4.95;;;16.80;99.90;;;;;;4935192;29;20059;-79
2022/04/28 01:15:54;;;;;;;10.80;4.93;;;16.80;99.90;;;;;;4934871;29;20169;-79
2022/04/28 01:18:22;;;;;;;9.63;4.95;;;16.80;99.90;;;;;;4934810;29;20107;-78
2022/04/28 01:20:49;;;;;;;9.77;4.97;;;16.80;99.90;;;;;;4934838;29;20399;-77
2022/04/28 01:23:18;;;;;;;8.02;5.55;;;16.80;99.90;;;;;;4935102;29;20071;-78
2022/04/28 01:25:50;;;;;;;10.02;5.30;;;16.80;99.90;;;;;;4935258;29;20417;-77
2022/04/28 01:28:30;;;;;;;7.60;4.43;;;16.80;99.90;;;;;;4935042;29;20094;-78
2022/04/28 01:31:01;;;;;;;6.65;4.63;;;16.80;99.90;;;;;;4934978;29;20051;-77
2022/04/28 01:33:34;;;;;;;8.13;5.18;;;16.60;99.90;;;;;;4934616;29;20071;-78
2022/04/28 01:36:01;;;;;;;;;;;16.60;99.90;;;;;;4935236;29;20075;-78
2022/04/28 01:38:28;;;;;;;7.60;5.97;;;16.50;99.90;;;;;;4917553;29;19926;-78
2022/04/28 01:40:58;;;;;;;7.47;5.63;;;16.50;99.90;;;;;;4934708;29;20048;-78
2022/04/28 01:43:27;;;;;;;6.72;5.28;;;16.50;99.90;;;;;;4934547;29;20047;-78
2022/04/28 01:46:01;;;;;;;8.23;5.53;;;16.40;99.90;;;;;;4934996;29;20495;-77
2022/04/28 01:48:32;;;;;;;6.80;4.85;;;16.50;99.90;;;;;;4934538;29;20459;-78
2022/04/28 01:56:39;;;;;;;8.05;5.35;;;16.40;99.90;;;;;;4915998;29;20099;-79
2022/04/28 01:59:07;;;;;;;10.75;5.85;;;16.40;99.90;;;;;;4898306;29;20448;-78
2022/04/28 02:01:36;;;;;;;7.67;5.90;;;16.20;99.90;;;;;;4915618;29;20059;-79
2022/04/28 02:04:13;;;;;;;8.23;5.85;;;16.30;99.90;;;;;;4915093;29;20205;-78
2022/04/28 02:06:44;;;;;;;7.67;6.20;;;16.10;99.90;;;;;;4915779;29;20060;-77
2022/04/28 02:09:14;;;;;;;9.52;6.63;;;16.10;99.90;;;;;;4919333;29;20068;-79
2022/04/28 02:11:43;;;;;;;7.60;6.43;;;16.10;99.90;;;;;;4919883;29;20099;-78
2022/04/28 02:14:14;;;;;;;9.25;5.60;;;16.20;99.90;;;;;;4902252;29;20523;-77
2022/04/28 02:16:41;;;;;;;8.38;6.47;;;16.20;99.90;;;;;;4902301;29;20156;-78
2022/04/28 02:19:08;;;;;;;7.60;5.90;;;16.20;99.90;;;;;;4919340;29;20373;-77
2022/04/28 02:21:55;;;;;;;7.78;6.28;;;16.30;99.90;;;;;;4917557;29;20415;-78
2022/04/28 02:24:23;;;;;;;9.50;5.53;;;16.40;99.90;;;;;;4886810;29;20115;-79
2022/04/28 02:26:55;;;;;;;10.15;5.78;;;16.40;99.90;;;;;;4919534;29;20449;-77
2022/04/28 02:29:22;;;;;;;9.15;5.80;;;16.40;99.90;;;;;;4918620;29;20147;-78
2022/04/28 02:31:49;;;;;;;8.27;5.60;;;16.40;99.90;;;;;;4918904;29;20044;-79
2022/04/28 02:34:17;;;;;;;9.25;5.63;;;16.40;99.90;;;;;;4918663;29;20044;-78
2022/04/28 02:36:47;;;;;;;9.50;7.07;;;16.30;99.90;;;;;;4902055;29;20036;-79
2022/04/28 02:39:18;;;;;;;7.53;5.70;;;16.40;99.90;;;;;;4918645;29;20046;-78
2022/04/28 02:41:47;;;;;;;6.93;5.53;;;16.30;99.90;;;;;;4919153;29;20107;-80
2022/04/28 02:44:14;;;;;;;8.65;5.65;;;16.30;99.90;;;;;;4918722;29;20076;-77
2022/04/28 02:46:48;;;;;;;10.25;5.82;;;16.20;99.90;;;;;;4918930;29;20063;-80
2022/04/28 02:49:16;;;;;;;7.70;5.50;;;16.30;99.90;;;;;;4921951;29;20487;-79
2022/04/28 02:51:43;;;;;;;6.53;5.18;;;16.40;99.90;;;;;;4938009;29;20058;-79
2022/04/28 02:54:11;;;;;;;10.45;5.93;;;16.40;99.90;;;;;;4937602;29;20504;-79
2022/04/28 02:56:38;;;;;;;8.43;6.13;;;16.20;99.90;;;;;;4920835;29;20047;-79
2022/04/28 02:59:05;;;;;;;7.68;6.03;;;16.30;99.90;;;;;;4937597;29;20094;-79
2022/04/28 03:01:33;;;;;;;7.88;5.80;;;16.20;99.90;;;;;;4937804;29;20115;-80
2022/04/28 03:04:00;;;;;;;9.13;5.72;;;16.40;99.90;;;;;;4920621;29;20040;-80
2022/04/28 03:11:59;;;;;;;8.43;5.88;;;16.50;99.90;;;;;;4937909;29;20048;-80
2022/04/28 03:14:28;;;;;;;8.77;6.35;;;16.60;99.90;;;;;;4937394;29;20063;-79
2022/04/28 03:16:55;;;;;;;14.55;5.63;;;16.80;99.90;;;;;;4920236;29;20460;-80
2022/04/28 03:19:22;;;;;;;12.60;5.75;;;16.70;99.90;;;;;;4937142;29;20545;-80
2022/04/28 03:21:50;;;;;;;8.30;5.93;;;16.80;99.90;;;;;;4937133;29;20506;-79
2022/04/28 03:24:17;;;;;;;9.43;6.13;;;16.60;99.90;;;;;;4937136;29;20118;-79
2022/04/28 03:26:44;;;;;;;8.23;5.97;;;16.30;99.90;;;;;;4937497;29;20071;-77
2022/04/28 03:29:12;;;;;;;9.40;6.32;;;16.50;99.90;;;;;;4937226;29;20043;-80
2022/04/28 03:31:39;;;;;;;9.65;6.63;;;16.50;99.90;;;;;;4936840;29;20043;-80
2022/04/28 03:34:06;;;;;;;8.45;6.32;;;16.50;99.90;;;;;;4937170;29;20048;-81
2022/04/28 03:36:52;;;;;;;11.30;6.47;;;16.40;99.90;;;;;;4936728;29;20232;-81
2022/04/28 03:39:21;;;;;;;10.63;6.85;;;16.30;99.90;;;;;;4935278;29;20139;-80
2022/04/28 03:41:48;;;;;;;10.38;6.50;;;16.20;99.90;;;;;;4920533;29;20169;-79
2022/04/28 03:44:16;;;;;;;7.88;6.40;;;16.40;99.90;;;;;;4937083;29;20117;-82
2022/04/28 03:46:43;;;;;;;7.82;6.47;;;16.50;99.90;;;;;;4937050;29;20107;-79
2022/04/28 03:49:11;;;;;;;8.82;6.80;;;16.40;99.90;;;;;;4935403;29;20040;-80
2022/04/28 03:51:39;;;;;;;8.80;6.95;;;16.40;99.90;;;;;;4917541;29;20455;-80
2022/04/28 03:54:06;;;;;;;9.77;7.07;;;16.20;99.90;;;;;;4917796;29;20436;-80
2022/04/28 03:56:34;;;;;;;10.73;7.85;;;16.20;99.90;;;;;;4917870;29;20052;-81
2022/04/28 03:59:02;;;;;;;12.82;7.38;;;16.30;99.90;;;;;;4917655;29;20048;-82
2022/04/28 04:01:32;;;;;;;8.23;7.07;;;16.20;99.90;;;;;;4900583;29;20056;-81
2022/04/28 04:04:00;;;;;;;8.85;7.03;;;16.30;99.90;;;;;;4900602;29;20374;-80
2022/04/28 04:06:28;;;;;;;9.00;6.80;;;15.90;99.90;;;;;;4917783;29;20047;-80
2022/04/28 04:08:55;;;;;;;9.82;7.45;;;15.60;99.90;;;;;;4917515;29;20052;-80
2022/04/28 04:11:23;;;;;;;10.75;7.45;;;15.70;99.90;;;;;;4917328;28;20071;-79
2022/04/28 04:13:51;;;;;;;9.32;6.82;;;15.90;99.90;;;;;;4917403;29;20052;-79
2022/04/28 04:16:18;;;;;;;11.10;7.22;;;15.90;99.90;;;;;;4916873;29;20123;-81
2022/04/28 04:18:46;;;;;;;11.32;7.40;;;15.50;99.90;;;;;;4884990;29;20428;-79
2022/04/28 04:21:14;;;;;;;9.95;7.32;;;15.70;99.90;;;;;;4900454;29;20429;-80
2022/04/28 04:23:41;;;;;;;9.25;6.90;;;15.60;99.90;;;;;;4900420;29;20147;-81
2022/04/28 04:26:08;;;;;;;9.98;6.72;;;16.00;99.90;;;;;;4917079;29;20044;-80
2022/04/28 04:28:42;;;;;;;9.77;6.82;;;16.20;99.90;;;;;;4916061;29;20467;-81
2022/04/28 04:33:56;;;;;;;9.90;6.70;;;16.00;99.90;;;;;;4917105;29;20113;-80
2022/04/28 04:36:23;;;;;;;9.48;6.57;;;15.80;99.90;;;;;;4917055;29;20103;-80
2022/04/28 04:38:50;;;;;;;10.35;7.05;;;15.60;99.90;;;;;;4917015;29;20074;-80
2022/04/28 04:41:17;;;;;;;10.65;7.45;;;15.60;99.90;;;;;;4917218;29;20485;-80
2022/04/28 04:43:45;;;;;;;9.05;6.47;;;15.60;99.90;;;;;;4917208;29;20063;-81
2022/04/28 04:46:12;;;;;;;10.10;6.55;;;15.30;99.90;;;;;;4916900;29;20111;-83
2022/04/28 04:48:43;;;;;;;9.10;6.13;;;15.40;99.90;;;;;;4899344;29;20052;-81
2022/04/28 04:51:10;;;;;;;8.57;6.30;;;15.30;99.90;;;;;;4931755;29;20373;-80
2022/04/28 04:53:38;;;;;;;10.70;6.30;;;15.40;99.90;;;;;;4935412;29;20488;-81
2022/04/28 04:56:05;;;;;;;9.90;6.35;;;15.40;99.90;;;;;;4936075;28;20479;-80
2022/04/28 04:58:32;;;;;;;8.73;6.47;;;15.60;99.90;;;;;;4935350;29;20110;-80
2022/04/28 05:01:04;;;;;;;15.23;8.60;;;15.80;99.90;;;;;;4935728;29;20043;-80
2022/04/28 05:03:31;;;;;;;15.55;9.80;;;15.80;99.90;;;;;;4935865;29;20048;-81
2022/04/28 05:05:59;;;;;;;9.70;6.68;;;15.40;99.90;;;;;;4919054;29;20424;-79
2022/04/28 05:08:28;;;;;;;10.70;5.60;;;15.30;99.90;;;;;;4935537;29;20106;-79
2022/04/28 05:10:55;;;;;;;7.45;5.22;;;15.30;99.90;;;;;;4935729;29;20131;-82
2022/04/28 05:13:23;;;;;;;7.57;4.68;;;15.20;99.90;;;;;;4935754;29;20154;-80
2022/04/28 05:15:50;;;;;;;7.43;4.75;;;15.50;99.90;;;;;;4935658;29;20400;-82
2022/04/28 05:18:20;;;;;;;9.95;4.93;;;15.40;99.90;;;;;;4935025;29;20062;-82
2022/04/28 05:20:50;;;;;;;6.73;4.60;;;15.40;99.90;;;;;;4935111;29;20047;-83
2022/04/28 05:23:17;;;;;;;8.17;4.43;;;15.60;99.90;;;;;;4934882;29;20399;-81
2022/04/28 05:25:44;;;;;;;5.60;4.13;;;15.80;99.90;;;;;;4935075;29;20104;-83
2022/04/28 05:28:12;;;;;;;11.77;4.45;;;15.70;99.90;;;;;;4935155;29;20134;-77
2022/04/28 05:30:39;;;;;;;5.57;4.00;;;15.70;99.90;;;;;;4935201;29;20474;-80
2022/04/28 05:33:07;;;;;;;6.22;4.30;;;15.30;99.90;;;;;;4902705;29;20555;-78
2022/04/28 05:35:40;;;;;;;6.85;3.75;;;15.10;99.90;;;;;;4934903;29;20122;-84
2022/04/28 05:38:09;;;;;;;7.70;3.78;;;15.30;99.90;;;;;;4934760;29;20052;-80
2022/04/28 05:40:39;;;;;;;5.68;3.78;;;15.20;99.90;;;;;;4902410;29;20040;-86
2022/04/28 05:45:56;;;;;;;6.57;3.75;;;15.20;99.90;;;;;;4935266;29;19962;-80
2022/04/28 05:48:26;;;;;;;5.18;3.63;;;15.30;99.90;;;;;;4917853;29;20111;-77
2022/04/28 05:50:53;;;;;;;6.57;3.60;;;15.40;99.90;;;;;;4923990;29;20232;-80
2022/04/28 05:53:21;;;;;;;6.18;3.60;;;15.60;99.90;;;;;;4915491;29;20048;-81
2022/04/28 05:55:48;;;;;;;16.05;10.55;;;15.40;99.90;;;;;;4899367;29;20048;-80
2022/04/28 05:58:15;;;;;;;6.57;4.57;;;15.80;99.90;;;;;;4915915;29;20452;-77
2022/04/28 06:00:43;;;;;;;8.85;3.50;;;15.60;99.90;;;;;;4915834;29;20040;-79
2022/04/28 06:03:10;;;;;;;6.93;3.90;;;15.80;99.90;;;;;;4883003;29;20448;-81
2022/04/28 06:05:38;;;;;;;6.00;4.00;;;15.70;99.90;;;;;;4898791;29;20044;-77
2022/04/28 06:08:05;;;;;;;5.18;3.47;;;16.00;99.90;;;;;;4915372;29;20441;-77
2022/04/28 06:10:32;;;;;;;6.22;3.03;;;15.70;99.90;;;;;;4915549;29;20432;-78
2022/04/28 06:13:00;;;;;;;6.63;3.10;;;15.40;99.90;;;;;;4915568;29;20496;-79
2022/04/28 06:15:27;;;;;;;4.45;2.97;;;15.70;99.90;;;;;;4915902;29;20115;-81
2022/04/28 06:17:58;;;;;;;6.35;3.17;;;15.50;99.90;;;;;;4915670;29;20048;-82
2022/04/28 06:20:25;;;;;;;5.68;2.83;;;15.50;99.90;;;;;;4915356;29;20112;-81
2022/04/28 06:22:53;;;;;;;5.22;3.00;;;15.50;99.90;;;;;;4898253;29;20092;-83
2022/04/28 06:25:54;;;;;;;5.30;3.05;;;15.40;99.90;;;;;;4915436;29;20461;-81
2022/04/28 06:29:00;;;;;;;8.35;2.85;;;15.40;99.90;;;;;;4897844;29;20052;-83
2022/04/28 06:31:29;;;;;;;6.75;2.95;;;15.60;99.90;;;;;;4913695;29;20040;-84
2022/04/28 06:34:01;;;;;;;6.38;2.75;;;15.70;99.90;;;;;;4913276;29;20051;-84
2022/04/28 06:36:28;;;;;;;3.65;2.50;;;15.40;99.90;;;;;;4914067;29;20037;-82
2022/04/28 06:39:19;;;;;;;4.65;2.75;;;15.70;99.90;;;;;;4913435;29;20127;-82
2022/04/28 06:41:46;;;;;;;8.50;3.00;;;16.10;99.90;;;;;;4904629;29;20064;-82
2022/04/28 06:44:13;;;;;;;5.65;2.80;;;16.20;99.90;;;;;;4913215;29;20046;-83
2022/04/28 06:46:41;;;;;;;3.88;2.35;;;16.10;99.90;;;;;;4914817;29;20044;-83
2022/04/28 06:49:34;;;;;;;5.05;2.50;;;16.10;99.90;;;;;;4914931;29;20048;-84
2022/04/28 06:52:04;;;;;;;4.75;2.58;;;15.90;99.90;;;;;;4934158;29;20075;-81
2022/04/28 06:54:40;;;;;;;6.53;2.90;;;16.20;99.90;;;;;;4937077;29;20067;-81
2022/04/28 06:57:08;;;;;;;5.95;2.75;;;16.40;99.90;;;;;;4920794;29;20439;-81
2022/04/28 06:59:38;;;;;;;5.78;2.80;;;16.40;99.90;;;;;;4920931;29;20110;-83
2022/04/28 07:02:24;;;;;;;8.20;2.88;;;16.60;99.90;;;;;;4937562;29;20444;-82
2022/04/28 07:13:04;;;;;;;6.32;3.10;;;16.00;99.90;;;;;;4932628;29;20087;-80
2022/04/28 07:19:08;;;;;;;4.60;3.20;;;15.70;99.90;;;;;;4908890;29;20052;-82
2022/04/28 07:21:37;;;;;;;4.47;2.90;;;16.00;99.90;;;;;;4937162;29;20119;-84
2022/04/28 07:24:35;;;;;;;4.63;2.67;;;16.10;99.90;;;;;;4937163;29;20135;-82
2022/04/28 07:27:03;;;;;;;7.30;2.90;;;15.70;99.90;;;;;;4937244;29;20044;-83
2022/04/28 07:29:37;;;;;;;7.00;2.95;;;15.70;99.90;;;;;;4919140;29;20138;-82
2022/04/28 07:32:12;;;;;;;10.43;3.05;;;16.10;99.90;;;;;;4936452;29;20044;-83
2022/04/28 07:34:46;;;;;;;6.32;3.08;;;16.40;99.90;;;;;;4919241;29;20174;-83
2022/04/28 07:37:14;;;;;;;7.38;2.80;;;16.20;99.90;;;;;;4936744;29;20040;-80
2022/04/28 07:39:45;;;;;;;4.18;2.95;;;16.20;99.90;;;;;;4919703;29;20050;-82
2022/04/28 07:42:34;;;;;;;;;;;;;;;;;;;;;
2022/04/28 07:45:08;;;;;;;4.75;2.90;;;16.60;99.90;;;;;;4937208;29;20067;-82
2022/04/28 07:47:41;;;;;;;7.75;2.80;;;16.70;99.90;;;;;;4936485;29;20039;-83
2022/04/28 07:50:14;;;;;;;6.35;2.60;;;16.90;99.90;;;;;;4918025;29;20048;-82
2022/04/28 07:52:45;;;;;;;9.13;3.20;;;16.40;99.90;;;;;;4901430;29;20048;-84
2022/04/28 07:55:15;;;;;;;5.53;2.67;;;16.80;99.90;;;;;;4900555;29;20103;-84
2022/04/28 07:58:29;;;;;;;7.97;2.85;;;17.10;99.90;;;;;;4917704;29;20040;-84
2022/04/28 08:00:56;;;;;;;6.43;2.88;;;17.00;99.90;;;;;;4897619;29;20059;-82
2022/04/28 08:03:44;;;;;;;5.70;2.78;;;16.80;99.90;;;;;;4887950;29;20416;-82
2022/04/28 08:06:13;;;;;;;5.53;2.90;;;16.20;99.90;;;;;;4916849;29;20044;-84
2022/04/28 08:08:43;;;;;;;6.65;3.08;;;16.70;99.90;;;;;;4903062;29;20444;-81
2022/04/28 08:11:10;;;;;;;5.53;2.63;;;16.70;99.90;;;;;;4906674;29;20056;-82
2022/04/28 08:13:40;;;;;;;5.85;3.03;;;16.80;99.90;;;;;;4909401;29;20742;-81
2022/04/28 08:16:12;;;;;;;8.18;3.40;;;17.00;99.90;;;;;;4926532;29;20403;-84
2022/04/28 08:18:42;;;;;;;5.00;2.63;;;17.10;99.90;;;;;;4923593;29;20047;-84
2022/04/28 08:21:17;;;;;;;5.25;3.10;;;16.80;99.90;;;;;;4925662;29;20048;-78
2022/04/28 08:23:45;;;;;;;8.30;3.38;;;16.90;99.90;;;;;;4900605;29;20055;-80
2022/04/28 08:26:12;;;;;;;5.82;3.03;;;16.90;99.90;;;;;;4917755;29;20099;-81
2022/04/28 08:28:40;;;;;;;8.40;3.20;;;17.00;99.90;;;;;;4918184;29;20123;-81
2022/04/28 08:31:07;;;;;;;4.40;2.72;;;16.70;99.90;;;;;;4917539;29;20142;-81
2022/04/28 08:33:34;;;;;;;4.45;2.80;;;16.70;99.90;;;;;;4917112;29;20083;-80
2022/04/28 08:36:04;;;;;;;6.70;3.13;;;16.70;99.90;;;;;;4900411;29;20127;-81
2022/04/28 08:38:32;;;;;;;6.35;3.08;;;17.10;99.90;;;;;;4884176;29;20807;-83
2022/04/28 08:41:03;;;;;;;5.88;3.35;;;16.60;99.90;;;;;;4916931;29;20071;-82
2022/04/28 08:43:32;;;;;;;4.90;2.92;;;16.50;99.90;;;;;;4916878;29;20099;-80
2022/04/28 08:49:25;;;;;;;6.22;4.05;;;17.10;99.90;;;;;;4916271;29;20134;-79
2022/04/28 08:51:54;;;;;;;8.45;3.38;;;17.30;99.90;;;;;;4912965;29;20449;-81
2022/04/28 08:54:28;;;;;;;6.85;3.28;;;17.30;99.90;;;;;;4935291;29;20073;-81
2022/04/28 08:56:57;;;;;;;7.50;3.40;;;17.20;99.90;;;;;;4903512;29;20055;-82
2022/04/28 08:59:25;;;;;;;5.10;3.33;;;17.60;99.90;;;;;;4935131;29;20040;-82
2022/04/28 09:01:54;;;;;;;5.88;3.78;;;17.80;99.90;;;;;;4935873;29;20044;-80
2022/04/28 09:04:23;;;;;;;5.70;3.50;;;17.40;99.90;;;;;;4935137;29;20118;-81
2022/04/28 09:07:07;;;;;;;5.97;3.70;;;17.40;99.90;;;;;;4935005;29;20451;-79
2022/04/28 09:09:38;;;;;;;5.53;3.33;;;17.90;99.90;;;;;;4935954;29;20431;-80
2022/04/28 09:12:07;;;;;;;5.22;3.60;;;17.70;99.90;;;;;;4928440;29;20047;-79
2022/04/28 09:14:42;;;;;;;6.90;3.80;;;18.20;99.90;;;;;;4939689;28;20494;-79
2022/04/28 09:17:10;;;;;;;5.70;3.33;;;18.30;99.90;;;;;;4933971;29;20127;-81
2022/04/28 09:19:39;;;;;;;6.40;4.10;;;18.60;99.90;;;;;;4935213;29;20058;-80
2022/04/28 09:22:13;;;;;;;19.67;4.43;;;17.90;99.90;;;;;;4934659;29;20050;-80
2022/04/28 09:24:44;;;;;;;6.47;3.70;;;18.40;99.90;;;;;;4902305;29;20048;-81
2022/04/28 09:27:15;;;;;;;13.80;7.45;;;18.70;99.80;;;;;;4922047;29;20047;-83
2022/04/28 09:29:48;;;;;;;10.20;4.40;;;19.10;99.30;;;;;;4911991;29;20387;-80
2022/04/28 09:32:30;;;;;;;7.57;4.25;;;19.40;98.40;;;;;;4936877;29;20047;-82
2022/04/28 09:35:21;;;;;;;6.82;5.03;;;18.70;99.70;;;;;;4939699;29;20082;-81
2022/04/28 09:37:52;;;;;;;9.45;4.45;;;18.60;99.90;;;;;;4937446;29;20394;-81
2022/04/28 09:43:08;;;;;;;7.63;5.10;;;19.00;99.70;;;;;;4933487;29;20044;-80
2022/04/28 09:45:39;;;;;;;9.20;5.22;;;19.60;98.80;;;;;;4918072;29;20075;-81
2022/04/28 09:48:07;;;;;;;7.57;5.03;;;19.20;98.30;;;;;;4917942;29;20467;-82
2022/04/28 09:50:39;;;;;;;9.25;5.15;;;19.40;99.50;;;;;;4933627;29;20455;-81
2022/04/28 09:53:08;;;;;;;9.70;5.32;;;19.60;97.70;;;;;;4915506;29;20044;-78
2022/04/28 09:55:40;;;;;;;9.30;4.40;;;20.00;98.20;;;;;;4915312;29;20052;-80
2022/04/28 10:01:13;;;;;;;7.60;4.38;;;20.30;94.80;;;;;;4886122;29;20520;-82
2022/04/28 10:03:43;;;;;;;8.43;4.15;;;20.60;95.10;;;;;;4915422;29;20091;-82
2022/04/28 10:06:11;;;;;;;7.05;4.45;;;20.70;93.20;;;;;;4926270;29;20055;-80
2022/04/28 10:08:41;;;;;;;6.32;3.58;;;20.90;92.00;;;;;;4953407;29;20047;-80
2022/04/28 10:14:42;;;;;;;7.38;3.95;;;20.70;91.60;;;;;;5077017;23;20047;-81
2022/04/28 10:21:00;;;;;;;9.63;3.80;;;20.00;90.20;;;;;;4917100;29;20047;-81
2022/04/28 10:35:06;;;;;;;6.20;3.97;;;20.20;90.30;;;;;;4805414;29;20189;-82
2022/04/28 10:37:41;;;;;;;7.38;3.92;;;20.00;90.40;;;;;;4831470;29;20071;-81
2022/04/28 10:40:16;;;;;;;8.13;4.80;;;20.20;90.40;;;;;;4897375;29;20104;-83
2022/04/28 10:43:17;;;;;;;10.45;4.28;;;20.40;89.90;;;;;;5148780;23;20023;31
2022/04/28 10:46:19;;;;;;;7.55;4.25;;;20.50;89.60;;;;;;4841497;29;20482;-83
2022/04/28 10:49:14;;;;;;;7.65;4.30;;;20.80;88.10;;;;;;4827708;29;20050;-81
2022/04/28 10:52:20;;;;;;;7.95;4.22;;;20.30;90.20;;;;;;4827064;29;20053;-82
2022/04/28 10:54:52;;;;;;;6.57;3.97;;;20.60;88.70;;;;;;4827705;29;20058;-85
2022/04/28 10:57:36;;;;;;;10.77;4.20;;;21.30;89.90;;;;;;4843236;29;20054;-85
2022/04/28 11:00:52;;;;;;;9.52;4.15;;;21.90;88.80;;;;;;4844687;29;20443;-83
2022/04/28 11:03:52;;;;;;;8.13;3.80;;;22.40;83.80;;;;;;4843226;29;20729;-85
2022/04/28 11:06:32;;;;;;;6.18;4.32;;;20.60;88.10;;;;;;4824703;29;20065;-81
2022/04/28 11:09:02;;;;;;;6.68;3.70;;;20.80;87.30;;;;;;4824436;29;20083;-83
2022/04/28 11:11:49;;;;;;;7.47;4.20;;;20.90;86.10;;;;;;4824228;29;20051;-82
2022/04/28 11:14:20;;;;;;;5.85;4.13;;;21.10;85.10;;;;;;4824018;29;20745;-80
2022/04/28 11:16:47;;;;;;;8.23;4.18;;;20.00;88.00;;;;;;4823466;29;20648;-80
2022/04/28 11:19:15;;;;;;;8.73;4.00;;;20.10;90.10;;;;;;4808977;29;20054;-87
2022/04/28 11:21:43;;;;;;;11.88;6.00;;;20.80;88.60;;;;;;4823920;29;20070;-86
2022/04/28 11:24:11;;;;;;;8.88;5.13;;;21.20;86.50;;;;;;4823685;29;20058;-83
2022/04/28 11:26:39;;;;;;;11.90;5.03;;;22.00;82.60;;;;;;4824967;29;20071;-81
2022/04/28 11:29:09;;;;;;;10.05;5.05;;;22.40;83.70;;;;;;4808510;29;20046;-79
2022/04/28 11:31:49;;;;;;;9.52;6.18;;;22.70;82.40;;;;;;4824946;29;20074;-79
2022/04/28 11:34:20;;;;;;;9.75;5.07;;;22.90;83.00;;;;;;4823965;29;20106;-81
2022/04/28 11:36:48;;;;;;;10.25;5.60;;;23.20;80.50;;;;;;4824188;29;20055;-78
2022/04/28 11:39:15;;;;;;;10.80;6.10;;;22.70;81.50;;;;;;4823866;29;20100;-80
2022/04/28 11:41:46;;;;;;;8.63;5.13;;;22.70;80.70;;;;;;4808805;29;20055;-80
2022/04/28 11:44:15;;;;;;;9.88;5.35;;;22.70;80.90;;;;;;4834035;29;20557;-80
2022/04/28 11:46:49;;;;;;;11.82;6.10;;;22.90;81.40;;;;;;4824755;29;20042;-79
2022/04/28 11:49:20;;;;;;;12.88;5.95;;;23.40;79.80;;;;;;4824548;29;20054;-82
2022/04/28 11:51:53;;;;;;;12.32;5.20;;;23.60;77.70;;;;;;4816787;29;20042;-81
2022/04/28 11:54:30;;;;;;;8.88;5.00;;;23.70;76.30;;;;;;4826481;29;20062;-81
2022/04/28 11:57:18;;;;;;;11.43;5.43;;;24.10;76.30;;;;;;4828323;29;20060;-82
2022/04/28 11:59:47;;;;;;;9.52;5.38;;;24.10;76.50;;;;;;4825998;29;20391;-82
2022/04/28 12:02:33;;;;;;;10.32;4.90;;;23.90;77.00;;;;;;4841992;29;20133;-80
2022/04/28 12:05:06;;;;;;;12.48;5.78;;;23.70;77.40;;;;;;4826348;29;20050;-82
2022/04/28 12:07:34;;;;;;;8.07;5.32;;;23.40;77.60;;;;;;4841624;29;20038;-82
2022/04/28 12:15:38;;;;;;;12.30;5.97;;;22.90;77.60;;;;;;4841227;29;20053;-82
2022/04/28 12:21:02;;;;;;;8.95;5.75;;;22.60;80.10;;;;;;4842149;29;20042;-78
2022/04/28 12:23:50;;;;;;;10.98;5.80;;;22.70;79.60;;;;;;4825664;29;20056;-80
2022/04/28 12:26:26;;;;;;;9.20;5.45;;;22.10;79.30;;;;;;4840115;29;20049;-80
2022/04/28 12:29:15;;;;;;;11.52;5.80;;;22.00;80.00;;;;;;4841253;29;20042;-82
2022/04/28 12:31:54;;;;;;;11.93;4.82;;;22.30;81.90;;;;;;4841058;29;20046;-81
2022/04/28 12:35:08;;;;;;;8.50;5.68;;;22.30;81.20;;;;;;4841061;29;20524;-82
2022/04/28 12:38:23;;;;;;;9.45;5.13;;;22.50;82.10;;;;;;4841449;29;20463;-81
2022/04/28 12:40:51;;;;;;;12.18;4.88;;;22.90;79.10;;;;;;4837518;29;20395;-81
2022/04/28 12:43:39;;;;;;;8.90;4.97;;;23.40;77.80;;;;;;4844704;29;20165;-85
2022/04/28 12:50:40;;;;;;;9.35;4.65;;;22.30;78.80;;;;;;4797775;29;20045;-86
2022/04/28 12:53:32;;;;;;;7.78;4.80;;;21.70;78.80;;;;;;4831545;29;20413;-82
2022/04/28 13:05:49;;;;;;;11.25;4.90;;;22.60;74.90;;;;;;4955667;23;20047;-86
2022/04/28 13:08:19;;;;;;;7.25;4.47;;;22.90;73.80;;;;;;4842351;29;20049;-83
2022/04/28 13:11:40;;;;;;;11.85;5.75;;;22.90;74.00;;;;;;4843202;29;20565;-86
2022/04/28 13:14:31;;;;;;;7.22;4.20;;;22.90;71.60;;;;;;4841500;29;20560;-83
2022/04/28 13:17:04;;;;;;;8.13;4.35;;;22.50;73.80;;;;;;4815958;29;20037;-84
2022/04/28 13:20:28;;;;;;;8.45;4.50;;;22.50;72.90;;;;;;4841895;29;20049;-81
2022/04/28 13:27:23;;;;;;;6.75;4.13;;;22.30;73.70;;;;;;4851539;29;20113;-81
2022/04/28 13:29:54;;;;;;;8.05;4.63;;;23.20;71.90;;;;;;4928403;23;20436;-83
2022/04/28 13:32:27;;;;;;;7.93;4.63;;;23.70;69.30;;;;;;4942873;29;20112;-83
2022/04/28 13:36:14;;;;;;;8.32;4.50;;;23.90;69.20;;;;;;4912958;23;20050;-85
2022/04/28 13:38:42;;;;;;;8.55;3.83;;;24.10;69.20;;;;;;4917502;29;20065;-81
2022/04/28 13:41:32;;;;;;;5.45;3.80;;;22.90;69.60;;;;;;4903138;29;20427;-82
2022/04/28 13:48:05;;;;;;;6.82;3.70;;;22.90;69.20;;;;;;4935302;29;20407;-78
2022/04/28 13:50:33;;;;;;;7.53;3.72;;;21.90;70.30;;;;;;4917871;29;20123;-82
2022/04/28 13:53:00;;;;;;;8.35;4.00;;;22.40;69.80;;;;;;4931105;29;20054;-80
2022/04/28 13:59:17;;;;;;;6.07;3.83;;;23.60;67.20;;;;;;4856092;29;20085;-83
2022/04/28 14:01:49;;;;;;;8.13;3.90;;;25.00;62.30;;;;;;4845833;29;20056;-81
2022/04/28 14:08:03;;;;;;;7.80;4.28;;;24.00;65.40;;;;;;4885925;29;20053;-84
2022/04/28 14:10:38;;;;;;;9.15;4.50;;;22.50;68.10;;;;;;4854124;29;20044;-83
2022/04/28 14:13:32;;;;;;;6.55;4.43;;;21.20;71.60;;;;;;4853444;29;20058;-81
2022/04/28 14:16:04;;;;;;;8.75;4.30;;;21.10;72.60;;;;;;5172103;23;20054;-85
2022/04/28 14:36:53;;;;;;;7.47;4.80;;;21.70;70.60;;;;;;5876548;23;20327;-83
2022/04/28 14:43:06;;;;;;;12.68;5.20;;;20.90;72.90;;;;;;4802051;29;20090;-85
2022/04/28 14:45:34;;;;;;;9.23;5.32;;;21.20;72.70;;;;;;4808947;29;20046;-86
2022/04/28 14:48:02;;;;;;;8.30;4.53;;;21.40;72.70;;;;;;4809189;29;20078;-83
2022/04/28 14:53:37;;;;;;;10.05;4.38;;;23.80;65.50;;;;;;4839464;29;20046;-86
2022/04/28 14:56:17;;;;;;;7.78;4.85;;;24.10;63.70;;;;;;4837987;29;20116;-85
2022/04/28 14:58:46;;;;;;;7.47;4.38;;;23.60;65.40;;;;;;4827307;29;20540;-83
2022/04/28 15:01:18;;;;;;;11.70;5.05;;;23.20;67.40;;;;;;4827927;29;20130;-86
2022/04/28 15:03:49;;;;;;;8.75;4.80;;;22.90;68.60;;;;;;4827642;29;20053;-85
2022/04/28 15:06:16;;;;;;;11.07;4.80;;;22.80;69.20;;;;;;4841566;29;20054;-86
2022/04/28 15:08:45;;;;;;;7.43;4.80;;;22.40;68.40;;;;;;4787555;29;20126;-88
2022/04/28 15:11:12;;;;;;;11.88;5.75;;;21.70;68.90;;;;;;4803073;29;20051;-87
2022/04/28 15:16:42;;;;;;;9.32;4.85;;;21.60;70.50;;;;;;4944916;23;20050;-88
2022/04/28 15:19:10;;;;;;;8.00;5.13;;;21.80;70.80;;;;;;4834912;29;20097;-86